sensor_id;sensor_type;location;lat;lon;timestamp;pressure;altitude;pressure_sealevel;temperature
45701;BMP280;36277;32.852;-116.998;2023-04-24T00:00:31;99490.16;;;24.92
45701;BMP280;36277;32.852;-116.998;2023-04-24T00:02:57;99488.22;;;25.12
45701;BMP280;36277;32.852;-116.998;2023-04-24T00:05:24;99486.69;;;25.28
45701;BMP280;36277;32.852;-116.998;2023-04-24T00:07:51;99497.50;;;25.43
45701;BMP280;36277;32.852;-116.998;2023-04-24T00:10:21;99492.56;;;25.58
45701;BMP280;36277;32.852;-116.998;2023-04-24T00:12:47;99497.84;;;25.72
45701;BMP280;36277;32.852;-116.998;2023-04-24T00:15:13;99490.56;;;25.84
45701;BMP280;36277;32.852;-116.998;2023-04-24T00:17:40;99499.78;;;25.52
45701;BMP280;36277;32.852;-116.998;2023-04-24T00:20:06;99503.94;;;25.18
45701;BMP280;36277;32.852;-116.998;2023-04-24T00:22:33;99498.41;;;24.33
45701;BMP280;36277;32.852;-116.998;2023-04-24T00:24:59;99498.78;;;24.11
45701;BMP280;36277;32.852;-116.998;2023-04-24T00:27:25;99505.88;;;24.59
45701;BMP280;36277;32.852;-116.998;2023-04-24T00:29:51;99503.75;;;24.87
45701;BMP280;36277;32.852;-116.998;2023-04-24T00:32:18;99504.78;;;25.12
45701;BMP280;36277;32.852;-116.998;2023-04-24T00:34:44;99499.03;;;25.32
45701;BMP280;36277;32.852;-116.998;2023-04-24T00:37:10;99490.28;;;25.48
45701;BMP280;36277;32.852;-116.998;2023-04-24T00:39:37;99496.56;;;25.68
45701;BMP280;36277;32.852;-116.998;2023-04-24T00:42:03;99490.56;;;25.84
45701;BMP280;36277;32.852;-116.998;2023-04-24T00:44:33;99493.03;;;25.99
45701;BMP280;36277;32.852;-116.998;2023-04-24T00:47:01;99500.84;;;25.64
45701;BMP280;36277;32.852;-116.998;2023-04-24T00:49:27;99485.22;;;25.13
45701;BMP280;36277;32.852;-116.998;2023-04-24T00:51:53;99495.47;;;24.61
45701;BMP280;36277;32.852;-116.998;2023-04-24T00:54:20;99486.97;;;24.56
45701;BMP280;36277;32.852;-116.998;2023-04-24T00:56:46;99497.78;;;25.03
45701;BMP280;36277;32.852;-116.998;2023-04-24T00:59:13;99492.84;;;25.30
45701;BMP280;36277;32.852;-116.998;2023-04-24T01:01:42;99493.22;;;25.53
45701;BMP280;36277;32.852;-116.998;2023-04-24T01:04:09;99492.50;;;25.71
45701;BMP280;36277;32.852;-116.998;2023-04-24T01:06:39;99492.44;;;25.90
45701;BMP280;36277;32.852;-116.998;2023-04-24T01:09:07;99485.31;;;26.07
45701;BMP280;36277;32.852;-116.998;2023-04-24T01:11:37;99494.72;;;26.00
45701;BMP280;36277;32.852;-116.998;2023-04-24T01:14:03;99493.03;;;25.48
45701;BMP280;36277;32.852;-116.998;2023-04-24T01:16:30;99481.00;;;24.91
45701;BMP280;36277;32.852;-116.998;2023-04-24T01:18:56;99492.50;;;24.56
45701;BMP280;36277;32.852;-116.998;2023-04-24T01:21:23;99495.91;;;24.77
45701;BMP280;36277;32.852;-116.998;2023-04-24T01:23:53;99491.81;;;25.12
45701;BMP280;36277;32.852;-116.998;2023-04-24T01:26:21;99494.53;;;25.38
45701;BMP280;36277;32.852;-116.998;2023-04-24T01:28:48;99498.50;;;25.61
45701;BMP280;36277;32.852;-116.998;2023-04-24T01:31:15;99501.00;;;25.82
45701;BMP280;36277;32.852;-116.998;2023-04-24T01:33:42;99500.69;;;25.97
45701;BMP280;36277;32.852;-116.998;2023-04-24T01:36:11;99505.69;;;26.13
45701;BMP280;36277;32.852;-116.998;2023-04-24T01:38:37;99496.81;;;26.11
45701;BMP280;36277;32.852;-116.998;2023-04-24T01:41:04;99502.06;;;25.81
45701;BMP280;36277;32.852;-116.998;2023-04-24T01:43:30;99507.75;;;25.04
45701;BMP280;36277;32.852;-116.998;2023-04-24T01:45:57;99503.53;;;24.56
45701;BMP280;36277;32.852;-116.998;2023-04-24T01:48:23;99499.28;;;25.05
45701;BMP280;36277;32.852;-116.998;2023-04-24T01:50:50;99503.47;;;25.33
45701;BMP280;36277;32.852;-116.998;2023-04-24T01:53:16;99508.72;;;25.54
45701;BMP280;36277;32.852;-116.998;2023-04-24T01:55:42;99512.06;;;25.76
45701;BMP280;36277;32.852;-116.998;2023-04-24T01:58:09;99509.47;;;25.87
45701;BMP280;36277;32.852;-116.998;2023-04-24T02:00:35;99512.16;;;26.00
45701;BMP280;36277;32.852;-116.998;2023-04-24T02:03:01;99514.25;;;26.11
45701;BMP280;36277;32.852;-116.998;2023-04-24T02:05:28;99510.16;;;26.20
45701;BMP280;36277;32.852;-116.998;2023-04-24T02:07:54;99518.16;;;25.97
45701;BMP280;36277;32.852;-116.998;2023-04-24T02:10:21;99520.41;;;26.13
45701;BMP280;36277;32.852;-116.998;2023-04-24T02:12:47;99518.94;;;26.11
45701;BMP280;36277;32.852;-116.998;2023-04-24T02:15:13;99513.81;;;26.14
45701;BMP280;36277;32.852;-116.998;2023-04-24T02:17:40;99520.47;;;26.00
45701;BMP280;36277;32.852;-116.998;2023-04-24T02:20:07;99518.13;;;26.04
45701;BMP280;36277;32.852;-116.998;2023-04-24T02:22:33;99521.47;;;26.12
45701;BMP280;36277;32.852;-116.998;2023-04-24T02:25:00;99519.09;;;26.22
45701;BMP280;36277;32.852;-116.998;2023-04-24T02:27:26;99525.19;;;26.31
45701;BMP280;36277;32.852;-116.998;2023-04-24T02:29:53;99526.22;;;26.36
45701;BMP280;36277;32.852;-116.998;2023-04-24T02:32:19;99524.28;;;26.43
45701;BMP280;36277;32.852;-116.998;2023-04-24T02:34:45;99528.94;;;26.49
45701;BMP280;36277;32.852;-116.998;2023-04-24T02:37:11;99527.41;;;26.16
45701;BMP280;36277;32.852;-116.998;2023-04-24T02:39:38;99527.91;;;26.00
45701;BMP280;36277;32.852;-116.998;2023-04-24T02:42:04;99527.59;;;25.70
45701;BMP280;36277;32.852;-116.998;2023-04-24T02:44:31;99532.28;;;25.63
45701;BMP280;36277;32.852;-116.998;2023-04-24T02:46:57;99528.88;;;25.68
45701;BMP280;36277;32.852;-116.998;2023-04-24T02:49:23;99544.56;;;25.87
45701;BMP280;36277;32.852;-116.998;2023-04-24T02:51:49;99549.66;;;25.96
45701;BMP280;36277;32.852;-116.998;2023-04-24T02:54:15;99545.53;;;26.05
45701;BMP280;36277;32.852;-116.998;2023-04-24T02:56:42;99556.34;;;26.13
45701;BMP280;36277;32.852;-116.998;2023-04-24T02:59:08;99561.44;;;26.16
45701;BMP280;36277;32.852;-116.998;2023-04-24T03:01:34;99561.00;;;26.19
45701;BMP280;36277;32.852;-116.998;2023-04-24T03:04:01;99563.50;;;26.27
45701;BMP280;36277;32.852;-116.998;2023-04-24T03:06:27;99566.69;;;26.31
45701;BMP280;36277;32.852;-116.998;2023-04-24T03:08:54;99565.38;;;26.33
45701;BMP280;36277;32.852;-116.998;2023-04-24T03:11:20;99565.19;;;26.35
45701;BMP280;36277;32.852;-116.998;2023-04-24T03:13:46;99571.56;;;26.35
45701;BMP280;36277;32.852;-116.998;2023-04-24T03:16:12;99567.72;;;26.36
45701;BMP280;36277;32.852;-116.998;2023-04-24T03:18:39;99570.72;;;26.35
45701;BMP280;36277;32.852;-116.998;2023-04-24T03:21:05;99579.84;;;26.35
45701;BMP280;36277;32.852;-116.998;2023-04-24T03:23:31;99575.19;;;26.36
45701;BMP280;36277;32.852;-116.998;2023-04-24T03:25:57;99585.19;;;26.37
45701;BMP280;36277;32.852;-116.998;2023-04-24T03:28:23;99589.03;;;26.36
45701;BMP280;36277;32.852;-116.998;2023-04-24T03:30:50;99587.09;;;26.36
45701;BMP280;36277;32.852;-116.998;2023-04-24T03:33:17;99587.75;;;26.32
45701;BMP280;36277;32.852;-116.998;2023-04-24T03:35:43;99591.34;;;26.32
45701;BMP280;36277;32.852;-116.998;2023-04-24T03:38:10;99595.81;;;26.33
45701;BMP280;36277;32.852;-116.998;2023-04-24T03:40:36;99609.44;;;26.35
45701;BMP280;36277;32.852;-116.998;2023-04-24T03:43:03;99602.63;;;26.37
45701;BMP280;36277;32.852;-116.998;2023-04-24T03:45:29;99613.44;;;26.38
45701;BMP280;36277;32.852;-116.998;2023-04-24T03:47:55;99612.84;;;26.37
45701;BMP280;36277;32.852;-116.998;2023-04-24T03:50:21;99620.91;;;26.38
45701;BMP280;36277;32.852;-116.998;2023-04-24T03:52:48;99623.00;;;26.42
45701;BMP280;36277;32.852;-116.998;2023-04-24T03:55:14;99625.63;;;26.44
45701;BMP280;36277;32.852;-116.998;2023-04-24T03:57:41;99627.72;;;26.42
45701;BMP280;36277;32.852;-116.998;2023-04-24T04:00:07;99632.38;;;26.41
45701;BMP280;36277;32.852;-116.998;2023-04-24T04:02:34;99631.56;;;26.41
45701;BMP280;36277;32.852;-116.998;2023-04-24T04:05:00;99631.34;;;26.36
45701;BMP280;36277;32.852;-116.998;2023-04-24T04:07:27;99635.38;;;26.40
45701;BMP280;36277;32.852;-116.998;2023-04-24T04:09:55;99641.13;;;26.38
45701;BMP280;36277;32.852;-116.998;2023-04-24T04:12:21;99636.25;;;26.34
45701;BMP280;36277;32.852;-116.998;2023-04-24T04:14:47;99644.34;;;26.36
45701;BMP280;36277;32.852;-116.998;2023-04-24T04:17:14;99654.56;;;26.35
45701;BMP280;36277;32.852;-116.998;2023-04-24T04:19:40;99652.66;;;26.36
45701;BMP280;36277;32.852;-116.998;2023-04-24T04:22:07;99655.84;;;26.33
45701;BMP280;36277;32.852;-116.998;2023-04-24T04:24:34;99652.22;;;26.32
45701;BMP280;36277;32.852;-116.998;2023-04-24T04:27:04;99655.44;;;26.29
45701;BMP280;36277;32.852;-116.998;2023-04-24T04:29:31;99659.25;;;26.28
45701;BMP280;36277;32.852;-116.998;2023-04-24T04:31:58;99662.25;;;26.27
45701;BMP280;36277;32.852;-116.998;2023-04-24T04:34:24;99656.94;;;26.25
45701;BMP280;36277;32.852;-116.998;2023-04-24T04:36:50;99658.47;;;26.21
45701;BMP280;36277;32.852;-116.998;2023-04-24T04:39:17;99662.28;;;26.20
45701;BMP280;36277;32.852;-116.998;2023-04-24T04:41:44;99662.50;;;26.19
45701;BMP280;36277;32.852;-116.998;2023-04-24T04:44:14;99671.03;;;26.17
45701;BMP280;36277;32.852;-116.998;2023-04-24T04:46:41;99673.16;;;26.15
45701;BMP280;36277;32.852;-116.998;2023-04-24T04:49:07;99667.81;;;26.14
45701;BMP280;36277;32.852;-116.998;2023-04-24T04:51:34;99669.13;;;26.11
45701;BMP280;36277;32.852;-116.998;2023-04-24T04:54:01;99676.16;;;26.07
45701;BMP280;36277;32.852;-116.998;2023-04-24T04:56:27;99674.25;;;26.08
45701;BMP280;36277;32.852;-116.998;2023-04-24T04:58:54;99670.00;;;26.05
45701;BMP280;36277;32.852;-116.998;2023-04-24T05:01:20;99665.75;;;26.03
45701;BMP280;36277;32.852;-116.998;2023-04-24T05:03:48;99672.56;;;26.00
45701;BMP280;36277;32.852;-116.998;2023-04-24T05:06:15;99669.78;;;26.00
45701;BMP280;36277;32.852;-116.998;2023-04-24T05:08:41;99672.78;;;25.99
45701;BMP280;36277;32.852;-116.998;2023-04-24T05:11:07;99680.66;;;25.95
45701;BMP280;36277;32.852;-116.998;2023-04-24T05:13:34;99672.56;;;25.94
45701;BMP280;36277;32.852;-116.998;2023-04-24T05:16:00;99674.69;;;25.92
45701;BMP280;36277;32.852;-116.998;2023-04-24T05:18:26;99674.69;;;25.92
45701;BMP280;36277;32.852;-116.998;2023-04-24T05:20:52;99678.75;;;25.89
45701;BMP280;36277;32.852;-116.998;2023-04-24T05:23:19;99679.81;;;25.88
45701;BMP280;36277;32.852;-116.998;2023-04-24T05:25:45;99674.50;;;25.87
45701;BMP280;36277;32.852;-116.998;2023-04-24T05:28:12;99674.72;;;25.85
45701;BMP280;36277;32.852;-116.998;2023-04-24T05:30:38;99680.25;;;25.85
45701;BMP280;36277;32.852;-116.998;2023-04-24T05:33:04;99678.97;;;25.81
45701;BMP280;36277;32.852;-116.998;2023-04-24T05:35:30;99691.09;;;25.80
45701;BMP280;36277;32.852;-116.998;2023-04-24T05:37:57;99691.31;;;25.79
45701;BMP280;36277;32.852;-116.998;2023-04-24T05:40:23;99678.53;;;25.78
45701;BMP280;36277;32.852;-116.998;2023-04-24T05:42:49;99686.19;;;25.76
45701;BMP280;36277;32.852;-116.998;2023-04-24T05:45:15;99691.09;;;25.74
45701;BMP280;36277;32.852;-116.998;2023-04-24T05:47:43;99680.25;;;25.72
45701;BMP280;36277;32.852;-116.998;2023-04-24T05:50:10;99682.38;;;25.70
45701;BMP280;36277;32.852;-116.998;2023-04-24T05:52:37;99686.22;;;25.69
45701;BMP280;36277;32.852;-116.998;2023-04-24T05:55:03;99689.41;;;25.66
45701;BMP280;36277;32.852;-116.998;2023-04-24T05:57:29;99676.00;;;25.63
45701;BMP280;36277;32.852;-116.998;2023-04-24T05:59:56;99674.31;;;25.62
45701;BMP280;36277;32.852;-116.998;2023-04-24T06:02:22;99672.59;;;25.61
45701;BMP280;36277;32.852;-116.998;2023-04-24T06:04:48;99667.50;;;25.58
45701;BMP280;36277;32.852;-116.998;2023-04-24T06:07:15;99669.63;;;25.56
45701;BMP280;36277;32.852;-116.998;2023-04-24T06:09:41;99667.94;;;25.55
45701;BMP280;36277;32.852;-116.998;2023-04-24T06:12:07;99671.75;;;25.54
45701;BMP280;36277;32.852;-116.998;2023-04-24T06:14:34;99667.28;;;25.53
45701;BMP280;36277;32.852;-116.998;2023-04-24T06:17:00;99664.75;;;25.52
45701;BMP280;36277;32.852;-116.998;2023-04-24T06:19:26;99662.19;;;25.50
45701;BMP280;36277;32.852;-116.998;2023-04-24T06:21:53;99656.88;;;25.49
45701;BMP280;36277;32.852;-116.998;2023-04-24T06:24:19;99657.13;;;25.47
45701;BMP280;36277;32.852;-116.998;2023-04-24T06:26:45;99662.00;;;25.45
45701;BMP280;36277;32.852;-116.998;2023-04-24T06:29:12;99663.06;;;25.44
45701;BMP280;36277;32.852;-116.998;2023-04-24T06:31:38;99659.66;;;25.42
45701;BMP280;36277;32.852;-116.998;2023-04-24T06:34:04;99659.66;;;25.42
45701;BMP280;36277;32.852;-116.998;2023-04-24T06:36:31;99653.69;;;25.39
45701;BMP280;36277;32.852;-116.998;2023-04-24T06:39:00;99654.75;;;25.38
45701;BMP280;36277;32.852;-116.998;2023-04-24T06:41:26;99659.44;;;25.37
45701;BMP280;36277;32.852;-116.998;2023-04-24T06:43:52;99658.59;;;25.37
45701;BMP280;36277;32.852;-116.998;2023-04-24T06:46:18;99659.88;;;25.34
45701;BMP280;36277;32.852;-116.998;2023-04-24T06:48:47;99656.47;;;25.32
45701;BMP280;36277;32.852;-116.998;2023-04-24T06:51:14;99659.47;;;25.31
45701;BMP280;36277;32.852;-116.998;2023-04-24T06:53:40;99652.25;;;25.30
45701;BMP280;36277;32.852;-116.998;2023-04-24T06:56:06;99653.06;;;25.30
45701;BMP280;36277;32.852;-116.998;2023-04-24T06:58:32;99656.06;;;25.29
45701;BMP280;36277;32.852;-116.998;2023-04-24T07:00:58;99655.19;;;25.28
45701;BMP280;36277;32.852;-116.998;2023-04-24T07:03:25;99660.94;;;25.27
45701;BMP280;36277;32.852;-116.998;2023-04-24T07:05:51;99660.31;;;25.25
45701;BMP280;36277;32.852;-116.998;2023-04-24T07:08:18;99661.13;;;25.26
45701;BMP280;36277;32.852;-116.998;2023-04-24T07:10:46;99662.44;;;25.23
45701;BMP280;36277;32.852;-116.998;2023-04-24T07:13:12;99665.19;;;25.23
45701;BMP280;36277;32.852;-116.998;2023-04-24T07:15:38;99661.59;;;25.23
45701;BMP280;36277;32.852;-116.998;2023-04-24T07:18:06;99664.78;;;25.20
45701;BMP280;36277;32.852;-116.998;2023-04-24T07:20:32;99653.09;;;25.18
45701;BMP280;36277;32.852;-116.998;2023-04-24T07:22:59;99654.78;;;25.19
45701;BMP280;36277;32.852;-116.998;2023-04-24T07:25:26;99656.91;;;25.17
45701;BMP280;36277;32.852;-116.998;2023-04-24T07:27:55;99663.06;;;25.19
45701;BMP280;36277;32.852;-116.998;2023-04-24T07:30:24;99656.03;;;25.16
45701;BMP280;36277;32.852;-116.998;2023-04-24T07:32:56;99668.38;;;25.14
45701;BMP280;36277;32.852;-116.998;2023-04-24T07:35:22;99667.69;;;25.12
45701;BMP280;36277;32.852;-116.998;2023-04-24T07:37:52;99663.88;;;25.13
45701;BMP280;36277;32.852;-116.998;2023-04-24T07:40:20;99664.28;;;25.10
45701;BMP280;36277;32.852;-116.998;2023-04-24T07:42:46;99675.34;;;25.10
45701;BMP280;36277;32.852;-116.998;2023-04-24T07:45:14;99675.56;;;25.08
45701;BMP280;36277;32.852;-116.998;2023-04-24T07:47:44;99673.44;;;25.10
45701;BMP280;36277;32.852;-116.998;2023-04-24T07:50:12;99669.19;;;25.08
45701;BMP280;36277;32.852;-116.998;2023-04-24T07:52:38;99682.16;;;25.07
45701;BMP280;36277;32.852;-116.998;2023-04-24T07:55:05;99680.44;;;25.06
45701;BMP280;36277;32.852;-116.998;2023-04-24T07:57:32;99673.22;;;25.05
45701;BMP280;36277;32.852;-116.998;2023-04-24T07:59:58;99677.25;;;25.03
45701;BMP280;36277;32.852;-116.998;2023-04-24T08:02:25;99677.25;;;25.03
45701;BMP280;36277;32.852;-116.998;2023-04-24T08:04:55;99680.22;;;25.01
45701;BMP280;36277;32.852;-116.998;2023-04-24T08:07:21;99682.13;;;25.01
45701;BMP280;36277;32.852;-116.998;2023-04-24T08:09:47;99679.34;;;25.01
45701;BMP280;36277;32.852;-116.998;2023-04-24T08:12:14;99677.66;;;25.00
45701;BMP280;36277;32.852;-116.998;2023-04-24T08:14:40;99672.34;;;24.98
45701;BMP280;36277;32.852;-116.998;2023-04-24T08:17:07;99673.19;;;24.99
45701;BMP280;36277;32.852;-116.998;2023-04-24T08:19:33;99664.31;;;24.97
45701;BMP280;36277;32.852;-116.998;2023-04-24T08:21:59;99665.38;;;24.96
45701;BMP280;36277;32.852;-116.998;2023-04-24T08:24:26;99668.31;;;24.94
45701;BMP280;36277;32.852;-116.998;2023-04-24T08:26:52;99672.13;;;24.93
45701;BMP280;36277;32.852;-116.998;2023-04-24T08:29:20;99664.91;;;24.92
45701;BMP280;36277;32.852;-116.998;2023-04-24T08:31:46;99667.91;;;24.91
45701;BMP280;36277;32.852;-116.998;2023-04-24T08:34:12;99662.38;;;24.91
45701;BMP280;36277;32.852;-116.998;2023-04-24T08:36:39;99656.22;;;24.89
45701;BMP280;36277;32.852;-116.998;2023-04-24T08:39:06;99657.28;;;24.88
45701;BMP280;36277;32.852;-116.998;2023-04-24T08:41:34;99656.41;;;24.87
45701;BMP280;36277;32.852;-116.998;2023-04-24T08:44:02;99651.75;;;24.88
45701;BMP280;36277;32.852;-116.998;2023-04-24T08:46:29;99650.03;;;24.87
45701;BMP280;36277;32.852;-116.998;2023-04-24T08:48:56;99648.34;;;24.86
45701;BMP280;36277;32.852;-116.998;2023-04-24T08:51:26;99653.00;;;24.85
45701;BMP280;36277;32.852;-116.998;2023-04-24T08:53:54;99654.28;;;24.83
45701;BMP280;36277;32.852;-116.998;2023-04-24T08:56:22;99651.31;;;24.84
45701;BMP280;36277;32.852;-116.998;2023-04-24T08:58:53;99657.91;;;24.83
45701;BMP280;36277;32.852;-116.998;2023-04-24T09:01:20;99668.50;;;24.80
45701;BMP280;36277;32.852;-116.998;2023-04-24T09:03:49;99666.38;;;24.82
45701;BMP280;36277;32.852;-116.998;2023-04-24T09:06:17;99661.09;;;24.80
45701;BMP280;36277;32.852;-116.998;2023-04-24T09:08:45;99658.94;;;24.76
45701;BMP280;36277;32.852;-116.998;2023-04-24T09:11:13;99651.72;;;24.75
45701;BMP280;36277;32.852;-116.998;2023-04-24T09:13:39;99647.88;;;24.76
45701;BMP280;36277;32.852;-116.998;2023-04-24T09:16:06;99647.25;;;24.74
45701;BMP280;36277;32.852;-116.998;2023-04-24T09:18:32;99661.03;;;24.74
45701;BMP280;36277;32.852;-116.998;2023-04-24T09:21:03;99659.16;;;24.74
45701;BMP280;36277;32.852;-116.998;2023-04-24T09:23:31;99656.59;;;24.73
45701;BMP280;36277;32.852;-116.998;2023-04-24T09:25:59;99657.69;;;24.72
45701;BMP280;36277;32.852;-116.998;2023-04-24T09:28:32;99657.69;;;24.72
45701;BMP280;36277;32.852;-116.998;2023-04-24T09:31:13;99650.44;;;24.71
45701;BMP280;36277;32.852;-116.998;2023-04-24T09:36:22;99645.13;;;24.63
45701;BMP280;36277;32.852;-116.998;2023-04-24T09:38:57;99648.53;;;24.65
45701;BMP280;36277;32.852;-116.998;2023-04-24T09:41:23;99648.72;;;24.63
45701;BMP280;36277;32.852;-116.998;2023-04-24T09:43:50;99654.22;;;24.63
45701;BMP280;36277;32.852;-116.998;2023-04-24T09:46:18;99648.72;;;24.63
45701;BMP280;36277;32.852;-116.998;2023-04-24T09:48:45;99650.81;;;24.61
45701;BMP280;36277;32.852;-116.998;2023-04-24T09:51:12;99658.06;;;24.62
45701;BMP280;36277;32.852;-116.998;2023-04-24T09:53:38;99656.34;;;24.61
45701;BMP280;36277;32.852;-116.998;2023-04-24T09:56:09;99650.63;;;24.63
45701;BMP280;36277;32.852;-116.998;2023-04-24T09:58:36;99652.94;;;24.59
45701;BMP280;36277;32.852;-116.998;2023-04-24T10:01:02;99644.88;;;24.58
45701;BMP280;36277;32.852;-116.998;2023-04-24T10:03:33;99655.50;;;24.61
45701;BMP280;36277;32.852;-116.998;2023-04-24T10:06:03;99648.69;;;24.57
45701;BMP280;36277;32.852;-116.998;2023-04-24T10:08:36;99657.63;;;24.59
45701;BMP280;36277;32.852;-116.998;2023-04-24T10:11:03;99656.34;;;24.55
45701;BMP280;36277;32.852;-116.998;2023-04-24T10:13:29;99653.56;;;24.55
45701;BMP280;36277;32.852;-116.998;2023-04-24T10:15:56;99659.09;;;24.55
45701;BMP280;36277;32.852;-116.998;2023-04-24T10:18:26;99661.03;;;24.54
45701;BMP280;36277;32.852;-116.998;2023-04-24T10:20:53;99658.44;;;24.53
45701;BMP280;36277;32.852;-116.998;2023-04-24T10:23:20;99663.31;;;24.51
45701;BMP280;36277;32.852;-116.998;2023-04-24T10:25:49;99673.94;;;24.54
45701;BMP280;36277;32.852;-116.998;2023-04-24T10:28:18;99675.88;;;24.53
45701;BMP280;36277;32.852;-116.998;2023-04-24T10:30:45;99664.38;;;24.50
45701;BMP280;36277;32.852;-116.998;2023-04-24T10:33:12;99661.84;;;24.48
45701;BMP280;36277;32.852;-116.998;2023-04-24T10:35:45;99668.66;;;24.52
45701;BMP280;36277;32.852;-116.998;2023-04-24T10:38:18;99660.97;;;24.48
45701;BMP280;36277;32.852;-116.998;2023-04-24T10:40:49;99668.78;;;24.44
45701;BMP280;36277;32.852;-116.998;2023-04-24T10:43:17;99668.59;;;24.46
45701;BMP280;36277;32.852;-116.998;2023-04-24T10:46:05;99661.16;;;24.46
45701;BMP280;36277;32.852;-116.998;2023-04-24T10:48:33;99670.91;;;24.42
45701;BMP280;36277;32.852;-116.998;2023-04-24T10:50:59;99664.56;;;24.42
45701;BMP280;36277;32.852;-116.998;2023-04-24T10:53:30;99666.91;;;24.45
45701;BMP280;36277;32.852;-116.998;2023-04-24T10:56:06;99660.50;;;24.44
45701;BMP280;36277;32.852;-116.998;2023-04-24T10:58:45;99657.97;;;24.43
45701;BMP280;36277;32.852;-116.998;2023-04-24T11:03:57;99665.56;;;24.34
45701;BMP280;36277;32.852;-116.998;2023-04-24T11:06:37;99672.38;;;24.38
45701;BMP280;36277;32.852;-116.998;2023-04-24T11:09:08;99680.63;;;24.32
45701;BMP280;36277;32.852;-116.998;2023-04-24T11:11:36;99680.63;;;24.32
45701;BMP280;36277;32.852;-116.998;2023-04-24T11:14:07;99683.38;;;24.32
45701;BMP280;36277;32.852;-116.998;2023-04-24T11:16:44;99679.97;;;24.30
45701;BMP280;36277;32.852;-116.998;2023-04-24T11:21:46;99684.66;;;24.29
45701;BMP280;36277;32.852;-116.998;2023-04-24T11:24:25;99682.34;;;24.33
45701;BMP280;36277;32.852;-116.998;2023-04-24T11:32:29;99692.47;;;24.26
45701;BMP280;36277;32.852;-116.998;2023-04-24T11:34:58;99681.44;;;24.26
45701;BMP280;36277;32.852;-116.998;2023-04-24T11:37:27;99689.72;;;24.26
45701;BMP280;36277;32.852;-116.998;2023-04-24T11:39:57;99698.22;;;24.24
45701;BMP280;36277;32.852;-116.998;2023-04-24T11:42:24;99693.53;;;24.25
45701;BMP280;36277;32.852;-116.998;2023-04-24T11:44:55;99691.41;;;24.27
45701;BMP280;36277;32.852;-116.998;2023-04-24T11:47:31;99689.72;;;24.26
45701;BMP280;36277;32.852;-116.998;2023-04-24T11:50:00;99696.06;;;24.20
45701;BMP280;36277;32.852;-116.998;2023-04-24T11:52:27;99699.66;;;24.20
45701;BMP280;36277;32.852;-116.998;2023-04-24T11:54:53;99706.25;;;24.19
45701;BMP280;36277;32.852;-116.998;2023-04-24T11:57:20;99714.31;;;24.21
45701;BMP280;36277;32.852;-116.998;2023-04-24T11:59:47;99711.97;;;24.18
45701;BMP280;36277;32.852;-116.998;2023-04-24T12:02:24;99724.25;;;24.22
45701;BMP280;36277;32.852;-116.998;2023-04-24T12:04:55;99727.47;;;24.19
45701;BMP280;36277;32.852;-116.998;2023-04-24T12:07:23;99728.50;;;24.18
45701;BMP280;36277;32.852;-116.998;2023-04-24T12:09:58;99722.78;;;24.19
45701;BMP280;36277;32.852;-116.998;2023-04-24T12:12:27;99729.97;;;24.14
45701;BMP280;36277;32.852;-116.998;2023-04-24T12:17:29;99735.91;;;24.17
45701;BMP280;36277;32.852;-116.998;2023-04-24T12:20:07;99730.63;;;24.16
45701;BMP280;36277;32.852;-116.998;2023-04-24T12:22:49;99732.50;;;24.15
45701;BMP280;36277;32.852;-116.998;2023-04-24T12:25:17;99742.47;;;24.10
45701;BMP280;36277;32.852;-116.998;2023-04-24T12:27:44;99740.53;;;24.11
45701;BMP280;36277;32.852;-116.998;2023-04-24T12:30:15;99738.44;;;24.13
45701;BMP280;36277;32.852;-116.998;2023-04-24T12:32:47;99749.03;;;24.09
45701;BMP280;36277;32.852;-116.998;2023-04-24T12:35:24;99742.47;;;24.10
45701;BMP280;36277;32.852;-116.998;2023-04-24T12:37:50;99740.09;;;24.07
45701;BMP280;36277;32.852;-116.998;2023-04-24T12:40:18;99753.88;;;24.07
45701;BMP280;36277;32.852;-116.998;2023-04-24T12:42:49;99759.00;;;24.10
45701;BMP280;36277;32.852;-116.998;2023-04-24T12:45:17;99756.44;;;24.09
45701;BMP280;36277;32.852;-116.998;2023-04-24T12:47:45;99753.88;;;24.07
45701;BMP280;36277;32.852;-116.998;2023-04-24T12:50:14;99763.88;;;24.08
45701;BMP280;36277;32.852;-116.998;2023-04-24T12:52:41;99762.38;;;24.06
45701;BMP280;36277;32.852;-116.998;2023-04-24T12:55:08;99757.03;;;24.04
45701;BMP280;36277;32.852;-116.998;2023-04-24T12:57:35;99758.75;;;24.05
45701;BMP280;36277;32.852;-116.998;2023-04-24T13:00:02;99760.84;;;24.03
45701;BMP280;36277;32.852;-116.998;2023-04-24T13:02:30;99758.31;;;24.02
45701;BMP280;36277;32.852;-116.998;2023-04-24T13:04:58;99761.66;;;23.97
45701;BMP280;36277;32.852;-116.998;2023-04-24T13:07:25;99757.84;;;23.98
45701;BMP280;36277;32.852;-116.998;2023-04-24T13:09:52;99749.41;;;24.00
45701;BMP280;36277;32.852;-116.998;2023-04-24T13:12:18;99751.53;;;24.04
45701;BMP280;36277;32.852;-116.998;2023-04-24T13:14:46;99747.72;;;24.05
45701;BMP280;36277;32.852;-116.998;2023-04-24T13:17:12;99746.03;;;24.04
45701;BMP280;36277;32.852;-116.998;2023-04-24T13:19:41;99743.47;;;24.03
45701;BMP280;36277;32.852;-116.998;2023-04-24T13:22:10;99750.22;;;24.00
45701;BMP280;36277;32.852;-116.998;2023-04-24T13:24:37;99762.97;;;24.01
45701;BMP280;36277;32.852;-116.998;2023-04-24T13:27:05;99759.56;;;23.99
45701;BMP280;36277;32.852;-116.998;2023-04-24T13:29:31;99764.41;;;23.97
45701;BMP280;36277;32.852;-116.998;2023-04-24T13:31:57;99757.19;;;23.96
45701;BMP280;36277;32.852;-116.998;2023-04-24T13:34:25;99763.78;;;23.95
45701;BMP280;36277;32.852;-116.998;2023-04-24T13:36:53;99754.88;;;23.93
45701;BMP280;36277;32.852;-116.998;2023-04-24T13:39:20;99756.09;;;23.91
45701;BMP280;36277;32.852;-116.998;2023-04-24T13:41:47;99763.31;;;23.92
45701;BMP280;36277;32.852;-116.998;2023-04-24T13:44:15;99763.31;;;23.92
45701;BMP280;36277;32.852;-116.998;2023-04-24T13:46:42;99764.59;;;23.89
45701;BMP280;36277;32.852;-116.998;2023-04-24T13:49:10;99769.69;;;23.92